createdAt,value
2023-04-09T00:00:10.311Z,98248.56
2023-04-09T00:02:38.678Z,98244.22
2023-04-09T00:05:09.251Z,98239.19
2023-04-09T00:07:37.559Z,98247.22
2023-04-09T00:10:07.142Z,98239.53
2023-04-09T00:12:35.473Z,98246.78
2023-04-09T00:15:03.873Z,98239.91
2023-04-09T00:17:32.213Z,98241.72
2023-04-09T00:20:00.559Z,98234.97
2023-04-09T00:22:30.255Z,98241.97
2023-04-09T00:24:58.519Z,98232.34
2023-04-09T00:27:27.173Z,98231.53
2023-04-09T00:29:55.605Z,98225.38
2023-04-09T00:32:23.880Z,98226.22
2023-04-09T00:34:52.226Z,98222.84
2023-04-09T00:37:20.675Z,98226.22
2023-04-09T00:39:50.751Z,98226.13
2023-04-09T00:42:19.083Z,98228.88
2023-04-09T00:44:47.454Z,98226.34
2023-04-09T00:47:15.941Z,98222.84
2023-04-09T00:49:44.590Z,98232.56
2023-04-09T00:52:12.955Z,98236.44
2023-04-09T00:54:41.363Z,98248.78
2023-04-09T00:57:12.391Z,98240.16
2023-04-09T00:59:40.751Z,98243.88
2023-04-09T01:02:10.910Z,98250.00
2023-04-09T01:04:45.095Z,98248.31
2023-04-09T01:07:18.692Z,98252.88
2023-04-09T01:09:55.034Z,98250.47
2023-04-09T01:12:41.818Z,98250.72
2023-04-09T01:15:15.215Z,98250.13
2023-04-09T01:17:48.450Z,98251.19
2023-04-09T01:20:31.732Z,98248.78
2023-04-09T01:23:15.533Z,98241.09
2023-04-09T01:25:55.551Z,98235.94
2023-04-09T01:28:29.172Z,98222.03
2023-04-09T01:31:02.593Z,98224.78
2023-04-09T01:33:32.633Z,98227.53
2023-04-09T01:36:02.432Z,98217.91
2023-04-09T01:38:30.746Z,98230.41
2023-04-09T01:40:59.226Z,98231.59
2023-04-09T01:43:29.413Z,98236.28
2023-04-09T01:45:58.051Z,98237.34
2023-04-09T01:48:27.717Z,98241.06
2023-04-09T01:50:56.089Z,98247.44
2023-04-09T01:53:24.641Z,98253.75
2023-04-09T01:55:52.939Z,98238.38
2023-04-09T01:58:21.204Z,98243.94
2023-04-09T02:00:52.601Z,98245.22
2023-04-09T02:03:26.503Z,98246.41
2023-04-09T02:06:06.576Z,98245.09
2023-04-09T02:08:39.252Z,98248.88
2023-04-09T02:11:11.338Z,98251.75
2023-04-09T02:13:41.951Z,98264.47
2023-04-09T02:16:13.920Z,98260.34
2023-04-09T02:18:42.265Z,98265.16
2023-04-09T02:21:13.747Z,98260.91
2023-04-09T02:23:42.157Z,98268.94
2023-04-09T02:26:10.491Z,98266.53
2023-04-09T02:28:41.381Z,98265.81
2023-04-09T02:31:11.423Z,98266.03
2023-04-09T02:33:39.719Z,98265.53
2023-04-09T02:36:08.442Z,98269.25
2023-04-09T02:38:36.710Z,98267.69
2023-04-09T02:41:05.385Z,98270.66
2023-04-09T02:43:33.661Z,98268.03
2023-04-09T02:46:02.038Z,98274.22
2023-04-09T02:48:31.762Z,98267.28
2023-04-09T02:51:00.119Z,98271.66
2023-04-09T02:53:28.432Z,98262.94
2023-04-09T02:55:56.732Z,98264.72
2023-04-09T02:58:25.045Z,98257.03
2023-04-09T03:00:53.297Z,98249.13
2023-04-09T03:03:21.772Z,98242.16
2023-04-09T03:05:56.999Z,98243.09
2023-04-09T03:08:28.234Z,98248.38
2023-04-09T03:10:56.544Z,98238.78
2023-04-09T03:13:26.018Z,98252.09
2023-04-09T03:15:54.499Z,98244.19
2023-04-09T03:18:22.878Z,98241.53
2023-04-09T03:20:55.526Z,98243.31
2023-04-09T03:23:23.784Z,98239.88
2023-04-09T03:26:02.494Z,98244.28
2023-04-09T03:28:31.217Z,98250.63
2023-04-09T03:30:59.836Z,98252.66
2023-04-09T03:33:28.132Z,98241.34
2023-04-09T03:35:57.832Z,98245.91
2023-04-09T03:38:28.122Z,98236.63
2023-04-09T03:40:57.836Z,98239.28
2023-04-09T03:43:26.406Z,98242.06
2023-04-09T03:45:54.703Z,98240.34
2023-04-09T03:48:22.977Z,98250.19
2023-04-09T03:50:51.630Z,98244.28
2023-04-09T03:53:21.332Z,98251.31
2023-04-09T03:55:49.666Z,98251.31
2023-04-09T03:58:17.923Z,98258.19
2023-04-09T04:00:48.673Z,98258.09
2023-04-09T04:03:17.343Z,98255.34
2023-04-09T04:05:45.894Z,98257.13
2023-04-09T04:08:15.743Z,98255.34
2023-04-09T04:10:48.051Z,98257.88
2023-04-09T04:13:16.400Z,98256.16
2023-04-09T04:15:44.742Z,98249.09
2023-04-09T04:18:13.041Z,98258.56
2023-04-09T04:20:42.214Z,98269.97
2023-04-09T04:23:13.414Z,98261.22
2023-04-09T04:25:44.163Z,98261.97
2023-04-09T04:28:12.451Z,98257.50
2023-04-09T04:30:43.114Z,98272.38
2023-04-09T04:33:11.585Z,98271.53
2023-04-09T04:35:40.094Z,98279.44
2023-04-09T04:38:08.506Z,98281.13
2023-04-09T04:40:42.356Z,98277.56
2023-04-09T04:43:12.051Z,98273.22
2023-04-09T04:45:40.402Z,98273.22
2023-04-09T04:48:08.753Z,98273.22
2023-04-09T04:50:37.019Z,98273.31
2023-04-09T04:53:05.440Z,98274.16
2023-04-09T04:55:37.049Z,98278.47
2023-04-09T04:58:05.329Z,98271.75
2023-04-09T05:00:35.037Z,98270.56
2023-04-09T05:03:03.539Z,98274.91
2023-04-09T05:05:31.981Z,98276.69
2023-04-09T05:08:00.560Z,98273.44
2023-04-09T05:10:28.900Z,98272.38
2023-04-09T05:12:57.213Z,98268.03
2023-04-09T05:15:25.565Z,98265.41
2023-04-09T05:17:55.376Z,98256.69
2023-04-09T05:20:23.849Z,98254.97
2023-04-09T05:22:52.326Z,98254.97
2023-04-09T05:25:20.810Z,98262.88
2023-04-09T05:27:49.136Z,98255.84
2023-04-09T05:30:20.552Z,98265.31
2023-04-09T05:32:51.761Z,98252.88
2023-04-09T05:35:21.596Z,98257.06
2023-04-09T05:37:49.902Z,98264.88
2023-04-09T05:40:18.185Z,98263.06
2023-04-09T05:42:46.545Z,98267.28
2023-04-09T05:45:14.848Z,98263.06
2023-04-09T05:47:46.146Z,98275.72
2023-04-09T05:50:14.592Z,98279.09
2023-04-09T05:52:44.249Z,98284.13
2023-04-09T05:55:12.809Z,98284.78
2023-04-09T05:57:42.214Z,98286.47
2023-04-09T06:00:11.676Z,98282.75
2023-04-09T06:02:40.052Z,98287.72
2023-04-09T06:05:09.317Z,98290.97
2023-04-09T06:07:37.572Z,98287.25
2023-04-09T06:10:09.435Z,98286.19
2023-04-09T06:12:37.833Z,98287.78
2023-04-09T06:15:07.478Z,98291.88
2023-04-09T06:17:35.910Z,98288.03
2023-04-09T06:20:06.484Z,98286.03
2023-04-09T06:22:34.791Z,98301.63
2023-04-09T06:25:03.067Z,98293.50
2023-04-09T06:27:35.789Z,98288.00
2023-04-09T06:30:04.238Z,98291.34
2023-04-09T06:32:37.695Z,98293.75
2023-04-09T06:35:11.816Z,98293.53
2023-04-09T06:37:45.623Z,98295.94
2023-04-09T06:40:15.552Z,98298.34
2023-04-09T06:42:47.844Z,98301.59
2023-04-09T06:45:16.267Z,98309.28
2023-04-09T06:47:44.681Z,98299.47
2023-04-09T06:50:13.044Z,98303.69
2023-04-09T06:52:41.604Z,98301.50
2023-04-09T06:55:11.517Z,98297.72
2023-04-09T06:57:40.190Z,98303.81
2023-04-09T07:00:11.857Z,98309.72
2023-04-09T07:02:40.427Z,98306.97
2023-04-09T07:05:09.724Z,98313.69
2023-04-09T07:07:38.860Z,98315.38
2023-04-09T07:10:08.946Z,98315.97
2023-04-09T07:12:37.260Z,98313.09
2023-04-09T07:15:09.543Z,98314.69
2023-04-09T07:17:37.956Z,98323.19
2023-04-09T07:20:07.604Z,98315.91
2023-04-09T07:22:37.444Z,98321.81
2023-04-09T07:25:06.844Z,98314.56
2023-04-09T07:27:35.169Z,98323.97
2023-04-09T07:30:03.482Z,98324.69
2023-04-09T07:32:36.027Z,98322.66
2023-04-09T07:35:05.315Z,98325.88
2023-04-09T07:37:33.624Z,98331.78
2023-04-09T07:40:04.017Z,98333.34
2023-04-09T07:42:32.738Z,98334.94
2023-04-09T07:45:01.070Z,98331.09
2023-04-09T07:47:38.518Z,98325.91
2023-04-09T07:50:10.583Z,98334.09
2023-04-09T07:52:38.959Z,98323.28
2023-04-09T07:55:08.329Z,98326.53
2023-04-09T07:57:36.856Z,98331.56
2023-04-09T08:00:06.895Z,98337.47
2023-04-09T08:02:35.491Z,98349.50
2023-04-09T08:05:03.876Z,98340.53
2023-04-09T08:07:33.596Z,98346.41
2023-04-09T08:10:02.070Z,98336.56
2023-04-09T08:12:30.407Z,98338.84
2023-04-09T08:14:58.766Z,98342.19
2023-04-09T08:17:27.472Z,98348.09
2023-04-09T08:19:55.885Z,98338.25
2023-04-09T08:22:24.220Z,98345.81
2023-04-09T08:24:54.710Z,98341.09
2023-04-09T08:27:23.029Z,98340.84
2023-04-09T08:29:51.915Z,98340.72
2023-04-09T08:32:20.277Z,98340.38
2023-04-09T08:34:48.741Z,98331.38
2023-04-09T08:37:17.580Z,98332.81
2023-04-09T08:39:46.077Z,98329.78
2023-04-09T08:42:16.642Z,98331.22
2023-04-09T08:44:45.745Z,98331.81
2023-04-09T08:47:14.452Z,98340.22
2023-04-09T08:49:42.906Z,98342.63
2023-04-09T08:52:11.337Z,98348.63
2023-04-09T08:54:39.757Z,98350.91
2023-04-09T08:57:08.564Z,98350.66
2023-04-09T08:59:38.322Z,98354.03
2023-04-09T09:02:11.157Z,98354.03
2023-04-09T09:04:47.332Z,98357.38
2023-04-09T09:07:16.444Z,98363.53
2023-04-09T09:09:56.393Z,98354.16
2023-04-09T09:12:36.901Z,98361.38
2023-04-09T09:15:26.132Z,98367.53
2023-04-09T09:17:59.246Z,98361.38
2023-04-09T09:20:28.912Z,98368.47
2023-04-09T09:22:57.849Z,98364.03
2023-04-09T09:25:26.792Z,98359.59
2023-04-09T09:27:55.956Z,98362.81
2023-04-09T09:30:27.529Z,98364.38
2023-04-09T09:33:05.699Z,98348.25
2023-04-09T09:35:50.158Z,98352.56
2023-04-09T09:38:19.410Z,98347.03
2023-04-09T09:40:48.571Z,98349.44
2023-04-09T09:43:18.790Z,98357.25
2023-04-09T09:45:50.133Z,98365.91
2023-04-09T09:48:18.656Z,98358.53
2023-04-09T09:50:50.405Z,98360.25
2023-04-09T09:53:23.994Z,98363.47
2023-04-09T09:55:58.590Z,98364.88
2023-04-09T09:58:33.605Z,98360.31
2023-04-09T10:01:04.011Z,98360.19
2023-04-09T10:03:37.675Z,98365.38
2023-04-09T10:06:06.888Z,98361.75
2023-04-09T10:08:38.014Z,98363.31
2023-04-09T10:11:07.864Z,98358.84
2023-04-09T10:13:41.769Z,98352.47
2023-04-09T10:16:13.115Z,98352.22
2023-04-09T10:18:42.891Z,98354.63
2023-04-09T10:21:33.729Z,98344.59
2023-04-09T10:24:05.889Z,98352.16
2023-04-09T10:26:35.532Z,98345.53
2023-04-09T10:29:08.716Z,98337.91
2023-04-09T10:31:55.003Z,98342.44
2023-04-09T10:34:25.844Z,98338.56
2023-04-09T10:36:59.770Z,98347.44
2023-04-09T10:39:30.918Z,98345.81
2023-04-09T10:42:00.419Z,98344.19
2023-04-09T10:44:31.883Z,98337.28
2023-04-09T10:47:01.679Z,98338.44
2023-04-09T10:49:38.233Z,98331.22
2023-04-09T10:52:11.613Z,98333.94
2023-04-09T10:54:47.078Z,98336.88
2023-04-09T10:57:20.844Z,98338.59
2023-04-09T10:59:52.128Z,98328.03
2023-04-09T11:03:01.783Z,98330.00
2023-04-09T11:05:35.126Z,98329.59
2023-04-09T11:08:07.731Z,98327.97
2023-04-09T11:10:36.416Z,98324.63
2023-04-09T11:13:05.629Z,98337.22
2023-04-09T11:15:36.531Z,98325.06
2023-04-09T11:18:09.845Z,98324.78
2023-04-09T11:20:38.461Z,98324.25
2023-04-09T11:23:07.199Z,98322.16
2023-04-09T11:25:36.167Z,98327.88
2023-04-09T11:28:06.207Z,98330.13
2023-04-09T11:30:35.637Z,98321.88
2023-04-09T11:33:05.515Z,98320.06
2023-04-09T11:35:37.224Z,98321.59
2023-04-09T11:38:09.117Z,98324.09
2023-04-09T11:40:43.537Z,98326.34
2023-04-09T11:43:11.915Z,98321.88
2023-04-09T11:45:40.735Z,98313.63
2023-04-09T11:48:10.603Z,98324.41
2023-04-09T11:50:39.379Z,98326.78
2023-04-09T11:53:19.256Z,98322.19
2023-04-09T11:55:51.982Z,98323.72
2023-04-09T11:58:24.039Z,98318.09
2023-04-09T12:00:55.845Z,98310.53
2023-04-09T12:03:37.482Z,98311.66
2023-04-09T12:06:09.283Z,98309.97
2023-04-09T12:08:38.547Z,98311.50
2023-04-09T12:11:11.401Z,98305.47
2023-04-09T12:13:43.246Z,98306.72
2023-04-09T12:16:12.740Z,98297.75
2023-04-09T12:18:42.565Z,98295.50
2023-04-09T12:21:11.354Z,98298.16
2023-04-09T12:23:39.783Z,98301.47
2023-04-09T12:26:08.269Z,98296.00
2023-04-09T12:28:37.057Z,98299.47
2023-04-09T12:31:06.046Z,98299.13
2023-04-09T12:33:34.376Z,98292.81
2023-04-09T12:36:04.166Z,98298.59
2023-04-09T12:38:32.527Z,98294.28
2023-04-09T12:41:01.303Z,98292.53
2023-04-09T12:43:29.820Z,98284.97
2023-04-09T12:45:58.228Z,98290.00
2023-04-09T12:48:26.851Z,98282.28
2023-04-09T12:50:55.242Z,98296.97
2023-04-09T12:53:25.039Z,98275.91
2023-04-09T12:55:53.478Z,98277.56
2023-04-09T12:58:21.836Z,98278.66
2023-04-09T13:00:50.323Z,98276.53
2023-04-09T13:03:18.829Z,98275.03
2023-04-09T13:05:47.344Z,98274.88
2023-04-09T13:08:16.244Z,98274.56
2023-04-09T13:10:46.469Z,98265.75
2023-04-09T13:13:17.939Z,98267.63
2023-04-09T13:15:46.331Z,98267.50
2023-04-09T13:18:15.048Z,98269.84
2023-04-09T13:20:43.493Z,98264.25
2023-04-09T13:23:11.777Z,98269.28
2023-04-09T13:25:40.284Z,98266.47
2023-04-09T13:28:09.960Z,98261.78
2023-04-09T13:30:38.356Z,98261.66
2023-04-09T13:33:06.826Z,98262.97
2023-04-09T13:35:35.179Z,98263.31
2023-04-09T13:38:03.645Z,98263.97
2023-04-09T13:40:32.009Z,98258.47
2023-04-09T13:43:00.368Z,98255.78
2023-04-09T13:45:30.168Z,98249.94
2023-04-09T13:47:58.505Z,98244.59
2023-04-09T13:50:27.055Z,98249.41
2023-04-09T13:52:55.762Z,98241.56
2023-04-09T13:55:24.162Z,98252.25
2023-04-09T13:57:52.609Z,98247.41
2023-04-09T14:00:21.146Z,98247.09
2023-04-09T14:02:51.204Z,98248.91
2023-04-09T14:05:19.830Z,98248.59
2023-04-09T14:07:48.380Z,98247.94
2023-04-09T14:10:17.060Z,98240.91
2023-04-09T14:12:45.535Z,98241.91
2023-04-09T14:15:14.146Z,98239.06
2023-04-09T14:17:43.801Z,98243.38
2023-04-09T14:20:14.221Z,98233.13
2023-04-09T14:22:43.143Z,98236.47
2023-04-09T14:25:11.904Z,98235.63
2023-04-09T14:27:40.252Z,98233.44
2023-04-09T14:30:11.573Z,98239.09
2023-04-09T14:32:39.976Z,98230.88
2023-04-09T14:35:09.038Z,98230.69
2023-04-09T14:37:40.931Z,98235.69
2023-04-09T14:40:10.608Z,98234.16
2023-04-09T14:42:38.982Z,98221.28
2023-04-09T14:45:08.368Z,98242.97
2023-04-09T14:47:36.696Z,98238.09
2023-04-09T14:50:09.854Z,98235.78
2023-04-09T14:52:40.044Z,98242.94
2023-04-09T14:55:12.460Z,98240.28
2023-04-09T14:57:41.848Z,98243.78
2023-04-09T15:00:12.474Z,98248.13
2023-04-09T15:02:41.606Z,98243.94
2023-04-09T15:05:11.366Z,98244.91
2023-04-09T15:07:41.706Z,98239.91
2023-04-09T15:10:11.144Z,98243.91
2023-04-09T15:12:40.974Z,98244.91
2023-04-09T15:15:11.219Z,98239.41
2023-04-09T15:17:39.603Z,98237.22
2023-04-09T15:20:09.481Z,98232.75
2023-04-09T15:22:42.328Z,98233.44
2023-04-09T15:25:13.051Z,98225.91
2023-04-09T15:27:42.557Z,98229.78
2023-04-09T15:30:11.531Z,98221.59
2023-04-09T15:32:40.058Z,98225.81
2023-04-09T15:35:09.665Z,98225.47
2023-04-09T15:37:38.033Z,98224.31
2023-04-09T15:40:09.661Z,98220.16
2023-04-09T15:42:38.140Z,98229.66
2023-04-09T15:45:07.968Z,98223.47
2023-04-09T15:47:36.428Z,98225.81
2023-04-09T15:50:05.171Z,98234.03
2023-04-09T15:52:33.594Z,98230.34
2023-04-09T15:55:02.278Z,98231.03
2023-04-09T15:57:32.257Z,98234.41
2023-04-09T16:00:00.728Z,98222.69
2023-04-09T16:02:29.252Z,98226.72
2023-04-09T16:04:57.770Z,98228.41
2023-04-09T16:07:26.808Z,98217.72
2023-04-09T16:09:55.333Z,98222.75
2023-04-09T16:12:24.824Z,98226.56
2023-04-09T16:14:54.930Z,98225.06
2023-04-09T16:17:23.766Z,98225.75
2023-04-09T16:19:52.255Z,98225.22
2023-04-09T16:22:20.663Z,98227.56
2023-04-09T16:24:49.031Z,98229.38
2023-04-09T16:27:17.448Z,98228.56
2023-04-09T16:29:46.266Z,98232.38
2023-04-09T16:32:16.079Z,98230.88
2023-04-09T16:34:44.519Z,98239.06
2023-04-09T16:37:15.777Z,98232.03
2023-04-09T16:39:44.166Z,98238.38
2023-04-09T16:42:12.704Z,98235.69
2023-04-09T16:44:41.151Z,98229.69
2023-04-09T16:47:09.655Z,98240.53
2023-04-09T16:49:39.451Z,98230.84
2023-04-09T16:52:07.895Z,98232.69
2023-04-09T16:54:36.347Z,98231.84
2023-04-09T16:57:07.765Z,98236.34
2023-04-09T16:59:36.708Z,98235.53
2023-04-09T17:02:05.301Z,98231.00
2023-04-09T17:04:34.583Z,98231.16
2023-04-09T17:07:04.436Z,98232.00
2023-04-09T17:09:32.945Z,98233.81
2023-04-09T17:12:01.300Z,98233.81
2023-04-09T17:14:33.731Z,98234.00
2023-04-09T17:17:02.715Z,98230.66
2023-04-09T17:19:31.120Z,98234.78
2023-04-09T17:21:59.634Z,98230.78
2023-04-09T17:24:29.898Z,98238.28
2023-04-09T17:26:58.391Z,98236.75
2023-04-09T17:29:26.707Z,98244.09
2023-04-09T17:31:55.287Z,98239.09
2023-04-09T17:34:24.172Z,98246.25
2023-04-09T17:36:56.855Z,98241.06
2023-04-09T17:39:25.342Z,98249.38
2023-04-09T17:41:56.564Z,98249.56
2023-04-09T17:44:25.948Z,98254.34
2023-04-09T17:46:54.364Z,98247.50
2023-04-09T17:49:22.769Z,98260.16
2023-04-09T17:51:51.314Z,98257.97
2023-04-09T17:54:19.702Z,98265.06
2023-04-09T17:56:48.011Z,98274.38
2023-04-09T17:59:17.912Z,98274.84
2023-04-09T18:01:46.285Z,98279.16
2023-04-09T18:04:16.181Z,98281.44
2023-04-09T18:06:44.776Z,98283.56
2023-04-09T18:09:13.502Z,98277.88
2023-04-09T18:11:42.592Z,98281.00
2023-04-09T18:14:11.194Z,98280.06
2023-04-09T18:16:41.391Z,98282.53
2023-04-09T18:19:11.813Z,98282.31
2023-04-09T18:21:40.243Z,98292.06
2023-04-09T18:24:08.923Z,98290.84
2023-04-09T18:26:37.296Z,98293.81
2023-04-09T18:29:05.992Z,98292.56
2023-04-09T18:31:34.485Z,98294.47
2023-04-09T18:34:04.175Z,98289.31
2023-04-09T18:36:32.545Z,98293.75
2023-04-09T18:39:00.892Z,98294.63
2023-04-09T18:41:30.179Z,98300.03
2023-04-09T18:43:58.514Z,98310.28
2023-04-09T18:46:26.955Z,98309.72
2023-04-09T18:48:55.488Z,98317.31
2023-04-09T18:51:26.261Z,98312.44
2023-04-09T18:53:54.853Z,98315.69
2023-04-09T18:56:24.710Z,98316.13
2023-04-09T18:58:53.281Z,98318.22
2023-04-09T19:01:21.962Z,98320.22
2023-04-09T19:03:50.564Z,98322.19
2023-04-09T19:06:21.226Z,98321.63
2023-04-09T19:08:57.131Z,98322.91
2023-04-09T19:11:26.010Z,98328.66
2023-04-09T19:13:54.495Z,98327.94
2023-04-09T19:16:22.931Z,98328.53
2023-04-09T19:18:51.598Z,98333.31
2023-04-09T19:21:20.072Z,98333.88
2023-04-09T19:23:48.428Z,98333.47
2023-04-09T19:26:18.304Z,98337.38
2023-04-09T19:28:46.940Z,98328.81
2023-04-09T19:31:16.172Z,98328.28
2023-04-09T19:33:44.500Z,98329.41
2023-04-09T19:36:13.092Z,98329.69
2023-04-09T19:38:41.797Z,98327.16
2023-04-09T19:41:10.546Z,98332.75
2023-04-09T19:43:41.911Z,98330.25
2023-04-09T19:46:10.700Z,98328.00
2023-04-09T19:48:40.827Z,98329.28
2023-04-09T19:51:09.251Z,98327.91
2023-04-09T19:53:37.861Z,98331.66
2023-04-09T19:56:07.044Z,98335.59
2023-04-09T19:58:35.391Z,98342.44
2023-04-09T20:01:05.295Z,98344.25
2023-04-09T20:03:34.021Z,98345.38
2023-04-09T20:06:07.851Z,98344.94
2023-04-09T20:08:36.669Z,98336.84
2023-04-09T20:11:05.415Z,98344.25
2023-04-09T20:13:34.252Z,98343.69
2023-04-09T20:16:03.950Z,98345.78
2023-04-09T20:18:32.313Z,98353.19
2023-04-09T20:21:00.645Z,98349.00
2023-04-09T20:23:29.058Z,98360.84
2023-04-09T20:25:57.441Z,98357.66
2023-04-09T20:28:26.054Z,98360.44
2023-04-09T20:30:54.386Z,98372.03
2023-04-09T20:33:24.113Z,98363.22
2023-04-09T20:35:53.209Z,98351.75
2023-04-09T20:38:23.881Z,98355.41
2023-04-09T20:40:52.752Z,98361.69
2023-04-09T20:43:21.404Z,98357.34
2023-04-09T20:45:49.712Z,98359.31
2023-04-09T20:48:19.003Z,98360.41
2023-04-09T20:50:48.760Z,98363.19
2023-04-09T20:53:17.933Z,98351.19
2023-04-09T20:55:46.534Z,98360.81
2023-04-09T20:58:14.896Z,98351.47
2023-04-09T21:00:43.207Z,98350.88
2023-04-09T21:03:11.713Z,98344.31
2023-04-09T21:05:40.357Z,98348.44
2023-04-09T21:08:14.659Z,98342.81
2023-04-09T21:10:43.076Z,98348.53
2023-04-09T21:13:11.388Z,98350.19
2023-04-09T21:15:39.780Z,98345.41
2023-04-09T21:18:08.352Z,98351.38
2023-04-09T21:20:36.776Z,98354.44
2023-04-09T21:23:05.148Z,98360.13
2023-04-09T21:25:35.169Z,98361.78
2023-04-09T21:28:03.518Z,98358.19
2023-04-09T21:30:32.355Z,98360.69
2023-04-09T21:33:04.157Z,98355.91
2023-04-09T21:35:32.605Z,98356.28
2023-04-09T21:38:02.861Z,98355.81
2023-04-09T21:40:31.890Z,98359.00
2023-04-09T21:43:01.733Z,98350.75
2023-04-09T21:45:30.399Z,98354.72
2023-04-09T21:47:58.788Z,98363.06
2023-04-09T21:50:27.181Z,98363.59
2023-04-09T21:52:55.575Z,98368.53
2023-04-09T21:55:24.172Z,98371.31
2023-04-09T21:57:53.622Z,98369.03
2023-04-09T22:00:23.355Z,98366.63
2023-04-09T22:02:51.839Z,98377.47
2023-04-09T22:05:20.500Z,98378.72
2023-04-09T22:07:48.765Z,98384.25
2023-04-09T22:10:17.064Z,98380.16
2023-04-09T22:12:45.608Z,98378.72
2023-04-09T22:15:14.083Z,98384.28
2023-04-09T22:17:44.391Z,98381.03
2023-04-09T22:20:13.007Z,98395.25
2023-04-09T22:22:42.487Z,98378.78
2023-04-09T22:25:12.350Z,98376.38
2023-04-09T22:27:40.681Z,98367.84
2023-04-09T22:30:10.659Z,98363.63
2023-04-09T22:32:39.049Z,98369.88
2023-04-09T22:35:10.189Z,98371.94
2023-04-09T22:37:38.644Z,98368.34
2023-04-09T22:40:14.234Z,98372.19
2023-04-09T22:42:43.450Z,98383.03
2023-04-09T22:45:12.598Z,98381.44
2023-04-09T22:47:41.219Z,98383.53
2023-04-09T22:50:13.463Z,98389.19
2023-04-09T22:52:41.855Z,98387.59
2023-04-09T22:55:11.358Z,98389.66
2023-04-09T22:57:42.717Z,98384.75
2023-04-09T23:00:11.776Z,98387.50
2023-04-09T23:02:40.255Z,98386.44
2023-04-09T23:05:11.331Z,98407.47
2023-04-09T23:07:39.751Z,98397.97
2023-04-09T23:10:09.407Z,98392.09
2023-04-09T23:12:37.721Z,98401.09
2023-04-09T23:15:07.280Z,98397.88
2023-04-09T23:17:36.010Z,98395.59
2023-04-09T23:20:06.784Z,98394.47
2023-04-09T23:22:36.563Z,98387.88
2023-04-09T23:25:08.076Z,98389.22
2023-04-09T23:27:36.393Z,98385.09
2023-04-09T23:30:05.823Z,98376.72
2023-04-09T23:32:34.239Z,98373.44
2023-04-09T23:35:02.763Z,98379.94
2023-04-09T23:37:31.399Z,98369.72
2023-04-09T23:40:01.343Z,98364.91
2023-04-09T23:42:32.924Z,98372.13
2023-04-09T23:45:04.094Z,98374.38
2023-04-09T23:47:33.623Z,98366.84
2023-04-09T23:50:04.992Z,98367.28
2023-04-09T23:52:34.894Z,98366.78
2023-04-09T23:55:05.054Z,98368.81
2023-04-09T23:57:33.728Z,98368.22
